sensor_id;sensor_type;location;lat;lon;timestamp;P1;durP1;ratioP1;P2;durP2;ratioP2
22764;SDS011;11549;50.852;3.816;2022-09-27T00:02:10;9.65;;;1.70;;
22764;SDS011;11549;50.852;3.816;2022-09-27T00:04:40;8.45;;;1.42;;
22764;SDS011;11549;50.852;3.816;2022-09-27T00:07:08;6.30;;;1.20;;
22764;SDS011;11549;50.852;3.816;2022-09-27T00:09:37;6.55;;;1.52;;
22764;SDS011;11549;50.852;3.816;2022-09-27T00:12:05;6.28;;;1.50;;
22764;SDS011;11549;50.852;3.816;2022-09-27T00:14:33;5.78;;;1.50;;
22764;SDS011;11549;50.852;3.816;2022-09-27T00:17:01;5.28;;;1.10;;
22764;SDS011;11549;50.852;3.816;2022-09-27T00:19:30;7.03;;;1.58;;
22764;SDS011;11549;50.852;3.816;2022-09-27T00:22:00;7.63;;;1.65;;
22764;SDS011;11549;50.852;3.816;2022-09-27T00:24:29;6.82;;;1.67;;
22764;SDS011;11549;50.852;3.816;2022-09-27T00:27:01;7.45;;;2.00;;
22764;SDS011;11549;50.852;3.816;2022-09-27T00:29:29;5.43;;;1.67;;
22764;SDS011;11549;50.852;3.816;2022-09-27T00:31:57;9.20;;;2.20;;
22764;SDS011;11549;50.852;3.816;2022-09-27T00:34:26;6.35;;;1.83;;
22764;SDS011;11549;50.852;3.816;2022-09-27T00:36:54;4.90;;;1.73;;
22764;SDS011;11549;50.852;3.816;2022-09-27T00:39:24;5.55;;;1.77;;
22764;SDS011;11549;50.852;3.816;2022-09-27T00:41:52;6.15;;;1.90;;
22764;SDS011;11549;50.852;3.816;2022-09-27T00:47:21;5.38;;;1.45;;
22764;SDS011;11549;50.852;3.816;2022-09-27T00:49:57;7.07;;;2.03;;
22764;SDS011;11549;50.852;3.816;2022-09-27T00:52:30;6.57;;;1.70;;
22764;SDS011;11549;50.852;3.816;2022-09-27T00:55:08;5.82;;;1.70;;
22764;SDS011;11549;50.852;3.816;2022-09-27T00:57:38;8.23;;;2.13;;
22764;SDS011;11549;50.852;3.816;2022-09-27T01:00:10;5.40;;;1.50;;
22764;SDS011;11549;50.852;3.816;2022-09-27T01:02:41;6.82;;;1.77;;
22764;SDS011;11549;50.852;3.816;2022-09-27T01:05:12;6.05;;;1.60;;
22764;SDS011;11549;50.852;3.816;2022-09-27T01:07:42;7.00;;;2.00;;
22764;SDS011;11549;50.852;3.816;2022-09-27T01:10:12;7.63;;;2.17;;
22764;SDS011;11549;50.852;3.816;2022-09-27T01:12:44;7.15;;;2.15;;
22764;SDS011;11549;50.852;3.816;2022-09-27T01:15:22;6.45;;;2.28;;
22764;SDS011;11549;50.852;3.816;2022-09-27T01:17:59;7.25;;;2.53;;
22764;SDS011;11549;50.852;3.816;2022-09-27T01:23:46;12.00;;;2.80;;
22764;SDS011;11549;50.852;3.816;2022-09-27T01:26:34;10.32;;;2.42;;
22764;SDS011;11549;50.852;3.816;2022-09-27T01:29:24;11.20;;;3.13;;
22764;SDS011;11549;50.852;3.816;2022-09-27T01:32:03;6.97;;;2.42;;
22764;SDS011;11549;50.852;3.816;2022-09-27T01:34:38;9.07;;;2.53;;
22764;SDS011;11549;50.852;3.816;2022-09-27T01:37:17;7.38;;;2.33;;
22764;SDS011;11549;50.852;3.816;2022-09-27T01:39:53;8.18;;;2.70;;
22764;SDS011;11549;50.852;3.816;2022-09-27T01:42:28;6.43;;;2.45;;
22764;SDS011;11549;50.852;3.816;2022-09-27T01:45:08;7.43;;;2.85;;
22764;SDS011;11549;50.852;3.816;2022-09-27T01:47:43;8.48;;;2.80;;
22764;SDS011;11549;50.852;3.816;2022-09-27T01:50:16;5.78;;;2.42;;
22764;SDS011;11549;50.852;3.816;2022-09-27T01:52:49;8.18;;;2.78;;
22764;SDS011;11549;50.852;3.816;2022-09-27T01:55:21;6.53;;;2.60;;
22764;SDS011;11549;50.852;3.816;2022-09-27T01:57:54;7.72;;;2.85;;
22764;SDS011;11549;50.852;3.816;2022-09-27T02:00:26;7.90;;;2.90;;
22764;SDS011;11549;50.852;3.816;2022-09-27T02:02:57;6.90;;;2.90;;
22764;SDS011;11549;50.852;3.816;2022-09-27T02:05:29;7.13;;;2.92;;
22764;SDS011;11549;50.852;3.816;2022-09-27T02:08:03;6.50;;;2.75;;
22764;SDS011;11549;50.852;3.816;2022-09-27T02:10:36;10.77;;;3.25;;
22764;SDS011;11549;50.852;3.816;2022-09-27T02:13:09;5.95;;;2.80;;
22764;SDS011;11549;50.852;3.816;2022-09-27T02:15:44;6.30;;;3.50;;
22764;SDS011;11549;50.852;3.816;2022-09-27T02:18:22;5.47;;;3.20;;
22764;SDS011;11549;50.852;3.816;2022-09-27T02:20:56;8.70;;;3.88;;
22764;SDS011;11549;50.852;3.816;2022-09-27T02:23:28;6.40;;;3.88;;
22764;SDS011;11549;50.852;3.816;2022-09-27T02:26:06;12.38;;;5.80;;
22764;SDS011;11549;50.852;3.816;2022-09-27T02:28:41;9.23;;;5.30;;
22764;SDS011;11549;50.852;3.816;2022-09-27T02:31:12;11.25;;;6.07;;
22764;SDS011;11549;50.852;3.816;2022-09-27T02:33:42;10.20;;;5.40;;
22764;SDS011;11549;50.852;3.816;2022-09-27T02:36:15;11.15;;;5.60;;
22764;SDS011;11549;50.852;3.816;2022-09-27T02:38:43;10.60;;;5.00;;
22764;SDS011;11549;50.852;3.816;2022-09-27T02:41:12;9.57;;;5.07;;
22764;SDS011;11549;50.852;3.816;2022-09-27T02:43:41;11.18;;;5.35;;
22764;SDS011;11549;50.852;3.816;2022-09-27T02:46:22;9.27;;;5.38;;
22764;SDS011;11549;50.852;3.816;2022-09-27T02:49:06;9.93;;;4.93;;
22764;SDS011;11549;50.852;3.816;2022-09-27T02:51:48;9.13;;;5.10;;
22764;SDS011;11549;50.852;3.816;2022-09-27T02:54:25;9.45;;;4.75;;
22764;SDS011;11549;50.852;3.816;2022-09-27T02:57:01;10.35;;;4.75;;
22764;SDS011;11549;50.852;3.816;2022-09-27T02:59:40;7.43;;;4.35;;
22764;SDS011;11549;50.852;3.816;2022-09-27T03:02:18;7.75;;;4.38;;
22764;SDS011;11549;50.852;3.816;2022-09-27T03:04:56;12.45;;;5.30;;
22764;SDS011;11549;50.852;3.816;2022-09-27T03:07:28;9.25;;;4.72;;
22764;SDS011;11549;50.852;3.816;2022-09-27T03:09:57;9.63;;;5.00;;
22764;SDS011;11549;50.852;3.816;2022-09-27T03:12:26;7.45;;;4.38;;
22764;SDS011;11549;50.852;3.816;2022-09-27T03:14:54;8.63;;;5.03;;
22764;SDS011;11549;50.852;3.816;2022-09-27T03:17:24;8.48;;;3.83;;
22764;SDS011;11549;50.852;3.816;2022-09-27T03:19:52;5.72;;;3.55;;
22764;SDS011;11549;50.852;3.816;2022-09-27T03:22:22;8.05;;;3.50;;
22764;SDS011;11549;50.852;3.816;2022-09-27T03:24:52;6.72;;;3.28;;
22764;SDS011;11549;50.852;3.816;2022-09-27T03:27:20;7.65;;;3.17;;
22764;SDS011;11549;50.852;3.816;2022-09-27T03:29:48;5.97;;;2.80;;
22764;SDS011;11549;50.852;3.816;2022-09-27T03:32:17;6.40;;;2.72;;
22764;SDS011;11549;50.852;3.816;2022-09-27T03:34:46;5.93;;;2.58;;
22764;SDS011;11549;50.852;3.816;2022-09-27T03:37:14;8.60;;;2.67;;
22764;SDS011;11549;50.852;3.816;2022-09-27T03:39:43;6.38;;;2.60;;
22764;SDS011;11549;50.852;3.816;2022-09-27T03:42:12;7.20;;;2.80;;
22764;SDS011;11549;50.852;3.816;2022-09-27T03:44:40;4.80;;;2.33;;
22764;SDS011;11549;50.852;3.816;2022-09-27T03:47:08;5.28;;;2.30;;
22764;SDS011;11549;50.852;3.816;2022-09-27T03:49:37;4.00;;;2.30;;
22764;SDS011;11549;50.852;3.816;2022-09-27T03:52:05;5.50;;;2.35;;
22764;SDS011;11549;50.852;3.816;2022-09-27T03:54:33;7.30;;;2.20;;
22764;SDS011;11549;50.852;3.816;2022-09-27T03:57:03;5.78;;;2.10;;
22764;SDS011;11549;50.852;3.816;2022-09-27T03:59:31;5.00;;;2.13;;
22764;SDS011;11549;50.852;3.816;2022-09-27T04:02:00;5.07;;;2.05;;
22764;SDS011;11549;50.852;3.816;2022-09-27T04:04:28;8.80;;;2.30;;
22764;SDS011;11549;50.852;3.816;2022-09-27T04:06:56;4.45;;;1.88;;
22764;SDS011;11549;50.852;3.816;2022-09-27T04:09:25;7.20;;;1.95;;
22764;SDS011;11549;50.852;3.816;2022-09-27T04:11:53;6.03;;;1.90;;
22764;SDS011;11549;50.852;3.816;2022-09-27T04:14:23;3.72;;;1.80;;
22764;SDS011;11549;50.852;3.816;2022-09-27T04:16:51;3.92;;;1.70;;
22764;SDS011;11549;50.852;3.816;2022-09-27T04:19:20;3.53;;;2.00;;
22764;SDS011;11549;50.852;3.816;2022-09-27T04:21:48;3.78;;;1.98;;
22764;SDS011;11549;50.852;3.816;2022-09-27T04:24:16;4.60;;;2.47;;
22764;SDS011;11549;50.852;3.816;2022-09-27T04:26:44;6.47;;;2.70;;
22764;SDS011;11549;50.852;3.816;2022-09-27T04:29:14;5.00;;;2.38;;
22764;SDS011;11549;50.852;3.816;2022-09-27T04:31:44;6.90;;;2.67;;
22764;SDS011;11549;50.852;3.816;2022-09-27T04:34:12;5.10;;;2.58;;
22764;SDS011;11549;50.852;3.816;2022-09-27T04:36:42;5.13;;;2.50;;
22764;SDS011;11549;50.852;3.816;2022-09-27T04:39:10;6.60;;;2.40;;
22764;SDS011;11549;50.852;3.816;2022-09-27T04:41:38;8.57;;;2.80;;
22764;SDS011;11549;50.852;3.816;2022-09-27T04:44:06;5.00;;;2.92;;
22764;SDS011;11549;50.852;3.816;2022-09-27T04:46:35;7.32;;;2.80;;
22764;SDS011;11549;50.852;3.816;2022-09-27T04:49:05;5.15;;;2.63;;
22764;SDS011;11549;50.852;3.816;2022-09-27T04:51:33;7.13;;;3.28;;
22764;SDS011;11549;50.852;3.816;2022-09-27T04:54:01;5.05;;;2.60;;
22764;SDS011;11549;50.852;3.816;2022-09-27T04:56:30;6.65;;;2.63;;
22764;SDS011;11549;50.852;3.816;2022-09-27T04:58:58;5.68;;;2.50;;
22764;SDS011;11549;50.852;3.816;2022-09-27T05:01:27;4.93;;;2.60;;
22764;SDS011;11549;50.852;3.816;2022-09-27T05:03:55;4.30;;;2.15;;
22764;SDS011;11549;50.852;3.816;2022-09-27T05:06:25;6.25;;;2.40;;
22764;SDS011;11549;50.852;3.816;2022-09-27T05:08:55;4.30;;;2.00;;
22764;SDS011;11549;50.852;3.816;2022-09-27T05:11:24;4.05;;;2.28;;
22764;SDS011;11549;50.852;3.816;2022-09-27T05:13:52;5.13;;;2.30;;
22764;SDS011;11549;50.852;3.816;2022-09-27T05:16:21;7.72;;;2.40;;
22764;SDS011;11549;50.852;3.816;2022-09-27T05:18:50;4.85;;;2.30;;
22764;SDS011;11549;50.852;3.816;2022-09-27T05:21:18;3.85;;;2.28;;
22764;SDS011;11549;50.852;3.816;2022-09-27T05:23:48;5.60;;;2.42;;
22764;SDS011;11549;50.852;3.816;2022-09-27T05:26:16;6.35;;;2.63;;
22764;SDS011;11549;50.852;3.816;2022-09-27T05:28:44;6.03;;;2.70;;
22764;SDS011;11549;50.852;3.816;2022-09-27T05:31:13;5.47;;;2.95;;
22764;SDS011;11549;50.852;3.816;2022-09-27T05:33:41;5.50;;;2.63;;
22764;SDS011;11549;50.852;3.816;2022-09-27T05:36:09;5.10;;;2.67;;
22764;SDS011;11549;50.852;3.816;2022-09-27T05:38:38;5.70;;;2.50;;
22764;SDS011;11549;50.852;3.816;2022-09-27T05:41:09;7.68;;;3.15;;
22764;SDS011;11549;50.852;3.816;2022-09-27T05:43:37;6.03;;;3.10;;
22764;SDS011;11549;50.852;3.816;2022-09-27T05:46:05;7.90;;;3.08;;
22764;SDS011;11549;50.852;3.816;2022-09-27T05:48:34;7.78;;;3.30;;
22764;SDS011;11549;50.852;3.816;2022-09-27T05:51:03;7.88;;;3.03;;
22764;SDS011;11549;50.852;3.816;2022-09-27T05:53:34;7.68;;;3.10;;
22764;SDS011;11549;50.852;3.816;2022-09-27T05:56:03;8.63;;;3.45;;
22764;SDS011;11549;50.852;3.816;2022-09-27T05:58:33;6.32;;;3.80;;
22764;SDS011;11549;50.852;3.816;2022-09-27T06:01:04;7.72;;;3.80;;
22764;SDS011;11549;50.852;3.816;2022-09-27T06:03:33;9.33;;;3.70;;
22764;SDS011;11549;50.852;3.816;2022-09-27T06:06:01;8.25;;;3.90;;
22764;SDS011;11549;50.852;3.816;2022-09-27T06:08:32;9.38;;;4.68;;
22764;SDS011;11549;50.852;3.816;2022-09-27T06:11:01;8.90;;;4.32;;
22764;SDS011;11549;50.852;3.816;2022-09-27T06:13:30;10.77;;;4.25;;
22764;SDS011;11549;50.852;3.816;2022-09-27T06:16:01;10.93;;;4.25;;
22764;SDS011;11549;50.852;3.816;2022-09-27T06:18:30;9.10;;;4.22;;
22764;SDS011;11549;50.852;3.816;2022-09-27T06:20:58;11.70;;;4.88;;
22764;SDS011;11549;50.852;3.816;2022-09-27T06:23:28;8.32;;;5.03;;
22764;SDS011;11549;50.852;3.816;2022-09-27T06:25:59;8.40;;;4.50;;
22764;SDS011;11549;50.852;3.816;2022-09-27T06:28:28;7.18;;;4.53;;
22764;SDS011;11549;50.852;3.816;2022-09-27T06:30:57;9.25;;;4.95;;
22764;SDS011;11549;50.852;3.816;2022-09-27T06:33:28;11.57;;;4.70;;
22764;SDS011;11549;50.852;3.816;2022-09-27T06:35:56;9.45;;;5.38;;
22764;SDS011;11549;50.852;3.816;2022-09-27T06:38:28;10.00;;;5.25;;
22764;SDS011;11549;50.852;3.816;2022-09-27T06:40:59;7.13;;;4.70;;
22764;SDS011;11549;50.852;3.816;2022-09-27T06:43:28;6.65;;;4.40;;
22764;SDS011;11549;50.852;3.816;2022-09-27T06:45:58;6.57;;;3.92;;
22764;SDS011;11549;50.852;3.816;2022-09-27T06:48:32;6.68;;;3.70;;
22764;SDS011;11549;50.852;3.816;2022-09-27T06:51:03;6.93;;;3.20;;
22764;SDS011;11549;50.852;3.816;2022-09-27T06:53:32;4.65;;;3.00;;
22764;SDS011;11549;50.852;3.816;2022-09-27T06:56:00;4.85;;;3.05;;
22764;SDS011;11549;50.852;3.816;2022-09-27T06:58:29;5.60;;;2.70;;
22764;SDS011;11549;50.852;3.816;2022-09-27T07:01:15;5.75;;;3.25;;
22764;SDS011;11549;50.852;3.816;2022-09-27T07:03:49;6.35;;;2.85;;
22764;SDS011;11549;50.852;3.816;2022-09-27T07:06:18;7.63;;;3.00;;
22764;SDS011;11549;50.852;3.816;2022-09-27T07:08:51;5.47;;;2.60;;
22764;SDS011;11549;50.852;3.816;2022-09-27T07:11:20;6.32;;;2.47;;
22764;SDS011;11549;50.852;3.816;2022-09-27T07:13:49;6.55;;;2.88;;
22764;SDS011;11549;50.852;3.816;2022-09-27T07:16:17;10.05;;;2.60;;
22764;SDS011;11549;50.852;3.816;2022-09-27T07:18:46;4.63;;;2.40;;
22764;SDS011;11549;50.852;3.816;2022-09-27T07:21:16;4.90;;;2.50;;
22764;SDS011;11549;50.852;3.816;2022-09-27T07:23:45;4.38;;;2.40;;
22764;SDS011;11549;50.852;3.816;2022-09-27T07:26:14;5.60;;;2.58;;
22764;SDS011;11549;50.852;3.816;2022-09-27T07:28:42;5.43;;;2.25;;
22764;SDS011;11549;50.852;3.816;2022-09-27T07:31:11;4.28;;;2.20;;
22764;SDS011;11549;50.852;3.816;2022-09-27T07:33:40;3.40;;;1.98;;
22764;SDS011;11549;50.852;3.816;2022-09-27T07:36:10;2.65;;;1.77;;
22764;SDS011;11549;50.852;3.816;2022-09-27T07:38:39;4.50;;;1.88;;
22764;SDS011;11549;50.852;3.816;2022-09-27T07:41:09;3.95;;;1.85;;
22764;SDS011;11549;50.852;3.816;2022-09-27T07:43:39;4.07;;;1.92;;
22764;SDS011;11549;50.852;3.816;2022-09-27T07:46:09;4.43;;;2.15;;
22764;SDS011;11549;50.852;3.816;2022-09-27T07:48:39;4.72;;;1.77;;
22764;SDS011;11549;50.852;3.816;2022-09-27T07:51:07;5.78;;;2.10;;
22764;SDS011;11549;50.852;3.816;2022-09-27T07:53:37;6.70;;;1.77;;
22764;SDS011;11549;50.852;3.816;2022-09-27T07:56:07;4.57;;;1.98;;
22764;SDS011;11549;50.852;3.816;2022-09-27T07:58:35;5.53;;;1.55;;
22764;SDS011;11549;50.852;3.816;2022-09-27T08:01:03;2.90;;;1.60;;
22764;SDS011;11549;50.852;3.816;2022-09-27T08:03:32;5.03;;;1.83;;
22764;SDS011;11549;50.852;3.816;2022-09-27T08:06:00;3.38;;;1.60;;
22764;SDS011;11549;50.852;3.816;2022-09-27T08:08:31;6.30;;;1.60;;
22764;SDS011;11549;50.852;3.816;2022-09-27T08:10:59;4.70;;;1.48;;
22764;SDS011;11549;50.852;3.816;2022-09-27T08:13:27;3.60;;;1.45;;
22764;SDS011;11549;50.852;3.816;2022-09-27T08:16:00;6.22;;;1.88;;
22764;SDS011;11549;50.852;3.816;2022-09-27T08:18:28;4.30;;;1.88;;
22764;SDS011;11549;50.852;3.816;2022-09-27T08:20:56;6.38;;;2.10;;
22764;SDS011;11549;50.852;3.816;2022-09-27T08:23:25;3.63;;;2.13;;
22764;SDS011;11549;50.852;3.816;2022-09-27T08:25:55;6.40;;;2.40;;
22764;SDS011;11549;50.852;3.816;2022-09-27T08:28:24;6.75;;;2.50;;
22764;SDS011;11549;50.852;3.816;2022-09-27T08:30:52;7.88;;;2.45;;
22764;SDS011;11549;50.852;3.816;2022-09-27T08:33:20;6.95;;;2.40;;
22764;SDS011;11549;50.852;3.816;2022-09-27T08:35:57;5.95;;;2.92;;
22764;SDS011;11549;50.852;3.816;2022-09-27T08:38:27;5.97;;;2.78;;
22764;SDS011;11549;50.852;3.816;2022-09-27T08:40:56;8.13;;;2.95;;
22764;SDS011;11549;50.852;3.816;2022-09-27T08:43:33;6.47;;;2.78;;
22764;SDS011;11549;50.852;3.816;2022-09-27T08:46:14;7.47;;;2.80;;
22764;SDS011;11549;50.852;3.816;2022-09-27T08:48:52;4.60;;;2.63;;
22764;SDS011;11549;50.852;3.816;2022-09-27T08:51:28;8.60;;;2.90;;
22764;SDS011;11549;50.852;3.816;2022-09-27T08:53:59;7.05;;;3.20;;
22764;SDS011;11549;50.852;3.816;2022-09-27T08:56:33;7.60;;;3.10;;
22764;SDS011;11549;50.852;3.816;2022-09-27T08:59:03;8.32;;;2.90;;
22764;SDS011;11549;50.852;3.816;2022-09-27T09:01:38;6.28;;;2.58;;
22764;SDS011;11549;50.852;3.816;2022-09-27T09:04:08;8.45;;;2.70;;
22764;SDS011;11549;50.852;3.816;2022-09-27T09:06:39;7.45;;;2.15;;
22764;SDS011;11549;50.852;3.816;2022-09-27T09:09:19;6.65;;;1.90;;
22764;SDS011;11549;50.852;3.816;2022-09-27T09:11:57;7.60;;;2.50;;
22764;SDS011;11549;50.852;3.816;2022-09-27T09:15:08;7.82;;;2.13;;
22764;SDS011;11549;50.852;3.816;2022-09-27T09:18:04;10.45;;;2.20;;
22764;SDS011;11549;50.852;3.816;2022-09-27T09:20:46;8.85;;;2.30;;
22764;SDS011;11549;50.852;3.816;2022-09-27T09:23:32;9.55;;;2.28;;
22764;SDS011;11549;50.852;3.816;2022-09-27T09:26:20;5.85;;;1.60;;
22764;SDS011;11549;50.852;3.816;2022-09-27T09:29:03;7.20;;;1.90;;
22764;SDS011;11549;50.852;3.816;2022-09-27T09:31:40;5.95;;;1.73;;
22764;SDS011;11549;50.852;3.816;2022-09-27T09:34:13;7.00;;;2.13;;
22764;SDS011;11549;50.852;3.816;2022-09-27T09:36:47;7.25;;;1.85;;
22764;SDS011;11549;50.852;3.816;2022-09-27T09:39:23;5.68;;;1.98;;
22764;SDS011;11549;50.852;3.816;2022-09-27T09:42:03;6.00;;;1.73;;
22764;SDS011;11549;50.852;3.816;2022-09-27T09:44:40;6.97;;;2.33;;
22764;SDS011;11549;50.852;3.816;2022-09-27T09:47:14;7.65;;;2.80;;
22764;SDS011;11549;50.852;3.816;2022-09-27T09:49:50;9.75;;;2.70;;
22764;SDS011;11549;50.852;3.816;2022-09-27T09:52:22;6.75;;;2.50;;
22764;SDS011;11549;50.852;3.816;2022-09-27T09:54:56;6.85;;;2.50;;
22764;SDS011;11549;50.852;3.816;2022-09-27T09:57:33;5.07;;;1.50;;
22764;SDS011;11549;50.852;3.816;2022-09-27T10:00:12;4.40;;;1.63;;
22764;SDS011;11549;50.852;3.816;2022-09-27T10:02:42;5.68;;;1.38;;
22764;SDS011;11549;50.852;3.816;2022-09-27T10:05:12;5.47;;;1.20;;
22764;SDS011;11549;50.852;3.816;2022-09-27T10:07:42;7.03;;;1.30;;
22764;SDS011;11549;50.852;3.816;2022-09-27T10:10:12;4.95;;;1.02;;
22764;SDS011;11549;50.852;3.816;2022-09-27T10:12:42;3.80;;;1.00;;
22764;SDS011;11549;50.852;3.816;2022-09-27T10:15:15;4.88;;;1.13;;
22764;SDS011;11549;50.852;3.816;2022-09-27T10:17:46;5.03;;;1.20;;
22764;SDS011;11549;50.852;3.816;2022-09-27T10:20:23;4.80;;;1.15;;
22764;SDS011;11549;50.852;3.816;2022-09-27T10:22:58;5.95;;;1.10;;
22764;SDS011;11549;50.852;3.816;2022-09-27T10:25:44;3.65;;;1.10;;
22764;SDS011;11549;50.852;3.816;2022-09-27T10:28:27;7.73;;;1.57;;
22764;SDS011;11549;50.852;3.816;2022-09-27T10:31:03;4.65;;;1.10;;
22764;SDS011;11549;50.852;3.816;2022-09-27T10:33:33;4.15;;;1.08;;
22764;SDS011;11549;50.852;3.816;2022-09-27T10:36:06;6.22;;;1.02;;
22764;SDS011;11549;50.852;3.816;2022-09-27T10:38:51;3.10;;;0.80;;
22764;SDS011;11549;50.852;3.816;2022-09-27T10:41:25;4.18;;;0.82;;
22764;SDS011;11549;50.852;3.816;2022-09-27T10:44:17;2.83;;;0.80;;
22764;SDS011;11549;50.852;3.816;2022-09-27T10:46:49;3.08;;;0.77;;
22764;SDS011;11549;50.852;3.816;2022-09-27T10:49:19;3.53;;;1.00;;
22764;SDS011;11549;50.852;3.816;2022-09-27T10:51:52;3.10;;;1.10;;
22764;SDS011;11549;50.852;3.816;2022-09-27T10:54:22;6.35;;;1.25;;
22764;SDS011;11549;50.852;3.816;2022-09-27T10:56:54;4.82;;;1.10;;
22764;SDS011;11549;50.852;3.816;2022-09-27T10:59:24;3.58;;;1.38;;
22764;SDS011;11549;50.852;3.816;2022-09-27T11:01:57;4.00;;;1.45;;
22764;SDS011;11549;50.852;3.816;2022-09-27T11:04:28;6.70;;;1.60;;
22764;SDS011;11549;50.852;3.816;2022-09-27T11:07:05;3.42;;;1.45;;
22764;SDS011;11549;50.852;3.816;2022-09-27T11:09:43;4.20;;;1.10;;
22764;SDS011;11549;50.852;3.816;2022-09-27T11:12:16;3.90;;;1.25;;
22764;SDS011;11549;50.852;3.816;2022-09-27T11:14:54;5.22;;;1.13;;
22764;SDS011;11549;50.852;3.816;2022-09-27T11:17:28;4.60;;;1.02;;
22764;SDS011;11549;50.852;3.816;2022-09-27T11:20:11;5.65;;;1.20;;
22764;SDS011;11549;50.852;3.816;2022-09-27T11:22:48;3.55;;;1.10;;
22764;SDS011;11549;50.852;3.816;2022-09-27T11:25:45;5.38;;;1.10;;
22764;SDS011;11549;50.852;3.816;2022-09-27T11:28:31;7.57;;;1.45;;
22764;SDS011;11549;50.852;3.816;2022-09-27T11:31:10;5.25;;;1.58;;
22764;SDS011;11549;50.852;3.816;2022-09-27T11:34:03;6.40;;;2.05;;
22764;SDS011;11549;50.852;3.816;2022-09-27T11:36:46;6.40;;;1.80;;
22764;SDS011;11549;50.852;3.816;2022-09-27T11:39:27;5.82;;;1.88;;
22764;SDS011;11549;50.852;3.816;2022-09-27T11:42:07;6.13;;;1.70;;
22764;SDS011;11549;50.852;3.816;2022-09-27T11:44:51;6.18;;;1.85;;
22764;SDS011;11549;50.852;3.816;2022-09-27T11:47:48;7.88;;;1.95;;
22764;SDS011;11549;50.852;3.816;2022-09-27T11:50:34;5.80;;;1.70;;
22764;SDS011;11549;50.852;3.816;2022-09-27T11:53:30;6.10;;;1.80;;
22764;SDS011;11549;50.852;3.816;2022-09-27T11:56:10;6.47;;;1.50;;
22764;SDS011;11549;50.852;3.816;2022-09-27T11:58:52;8.70;;;1.90;;
22764;SDS011;11549;50.852;3.816;2022-09-27T12:01:29;5.65;;;1.35;;
22764;SDS011;11549;50.852;3.816;2022-09-27T12:04:16;7.45;;;1.52;;
22764;SDS011;11549;50.852;3.816;2022-09-27T12:07:15;7.25;;;1.35;;
22764;SDS011;11549;50.852;3.816;2022-09-27T12:09:51;5.75;;;1.05;;
22764;SDS011;11549;50.852;3.816;2022-09-27T12:12:24;5.10;;;1.00;;
22764;SDS011;11549;50.852;3.816;2022-09-27T12:14:56;5.15;;;1.55;;
22764;SDS011;11549;50.852;3.816;2022-09-27T12:17:33;10.40;;;2.50;;
22764;SDS011;11549;50.852;3.816;2022-09-27T12:20:05;6.93;;;2.38;;
22764;SDS011;11549;50.852;3.816;2022-09-27T12:22:48;9.82;;;3.38;;
22764;SDS011;11549;50.852;3.816;2022-09-27T12:25:25;9.85;;;2.83;;
22764;SDS011;11549;50.852;3.816;2022-09-27T12:28:00;5.00;;;1.88;;
22764;SDS011;11549;50.852;3.816;2022-09-27T12:30:34;5.70;;;2.15;;
22764;SDS011;11549;50.852;3.816;2022-09-27T12:33:09;8.18;;;1.83;;
22764;SDS011;11549;50.852;3.816;2022-09-27T12:35:45;8.23;;;1.60;;
22764;SDS011;11549;50.852;3.816;2022-09-27T12:38:20;6.25;;;1.40;;
22764;SDS011;11549;50.852;3.816;2022-09-27T12:40:52;7.75;;;1.30;;
22764;SDS011;11549;50.852;3.816;2022-09-27T12:43:25;5.67;;;1.17;;
22764;SDS011;11549;50.852;3.816;2022-09-27T12:45:59;4.65;;;1.35;;
22764;SDS011;11549;50.852;3.816;2022-09-27T12:48:35;5.72;;;1.58;;
22764;SDS011;11549;50.852;3.816;2022-09-27T12:51:12;6.57;;;1.60;;
22764;SDS011;11549;50.852;3.816;2022-09-27T12:53:47;11.98;;;2.10;;
22764;SDS011;11549;50.852;3.816;2022-09-27T12:56:30;8.32;;;1.65;;
22764;SDS011;11549;50.852;3.816;2022-09-27T13:02:19;7.60;;;1.73;;
22764;SDS011;11549;50.852;3.816;2022-09-27T13:05:24;9.40;;;1.92;;
22764;SDS011;11549;50.852;3.816;2022-09-27T13:08:21;10.30;;;1.80;;
22764;SDS011;11549;50.852;3.816;2022-09-27T13:11:06;10.07;;;2.22;;
22764;SDS011;11549;50.852;3.816;2022-09-27T13:13:38;7.15;;;1.40;;
22764;SDS011;11549;50.852;3.816;2022-09-27T13:16:07;8.45;;;1.92;;
22764;SDS011;11549;50.852;3.816;2022-09-27T13:33:20;7.47;;;1.73;;
22764;SDS011;11549;50.852;3.816;2022-09-27T13:36:04;7.40;;;1.80;;
22764;SDS011;11549;50.852;3.816;2022-09-27T13:41:51;8.85;;;1.45;;
22764;SDS011;11549;50.852;3.816;2022-09-27T13:44:29;5.70;;;1.33;;
22764;SDS011;11549;50.852;3.816;2022-09-27T13:47:13;6.53;;;1.40;;
22764;SDS011;11549;50.852;3.816;2022-09-27T13:49:52;5.85;;;1.58;;
22764;SDS011;11549;50.852;3.816;2022-09-27T13:52:24;6.53;;;1.05;;
22764;SDS011;11549;50.852;3.816;2022-09-27T13:54:59;7.10;;;1.17;;
22764;SDS011;11549;50.852;3.816;2022-09-27T13:57:40;4.38;;;1.10;;
22764;SDS011;11549;50.852;3.816;2022-09-27T14:00:17;5.60;;;1.15;;
22764;SDS011;11549;50.852;3.816;2022-09-27T14:02:54;4.47;;;0.70;;
22764;SDS011;11549;50.852;3.816;2022-09-27T14:05:29;6.90;;;1.20;;
22764;SDS011;11549;50.852;3.816;2022-09-27T14:08:02;4.20;;;1.15;;
22764;SDS011;11549;50.852;3.816;2022-09-27T14:10:32;5.28;;;1.10;;
22764;SDS011;11549;50.852;3.816;2022-09-27T14:13:03;6.32;;;1.40;;
22764;SDS011;11549;50.852;3.816;2022-09-27T14:15:34;7.93;;;1.05;;
22764;SDS011;11549;50.852;3.816;2022-09-27T14:18:03;7.30;;;1.00;;
22764;SDS011;11549;50.852;3.816;2022-09-27T14:20:35;6.03;;;1.00;;
22764;SDS011;11549;50.852;3.816;2022-09-27T14:23:12;5.90;;;1.27;;
22764;SDS011;11549;50.852;3.816;2022-09-27T14:25:44;3.78;;;1.20;;
22764;SDS011;11549;50.852;3.816;2022-09-27T14:28:20;5.95;;;1.40;;
22764;SDS011;11549;50.852;3.816;2022-09-27T14:31:05;4.80;;;1.10;;
22764;SDS011;11549;50.852;3.816;2022-09-27T14:33:34;4.82;;;1.05;;
22764;SDS011;11549;50.852;3.816;2022-09-27T14:36:02;5.43;;;1.00;;
22764;SDS011;11549;50.852;3.816;2022-09-27T14:38:52;6.00;;;0.98;;
22764;SDS011;11549;50.852;3.816;2022-09-27T14:41:24;3.70;;;1.00;;
22764;SDS011;11549;50.852;3.816;2022-09-27T14:43:53;4.80;;;1.27;;
22764;SDS011;11549;50.852;3.816;2022-09-27T14:46:26;5.28;;;1.45;;
22764;SDS011;11549;50.852;3.816;2022-09-27T14:48:56;5.85;;;1.60;;
22764;SDS011;11549;50.852;3.816;2022-09-27T14:51:26;3.92;;;1.05;;
22764;SDS011;11549;50.852;3.816;2022-09-27T14:53:57;4.15;;;0.95;;
22764;SDS011;11549;50.852;3.816;2022-09-27T14:56:30;3.38;;;0.90;;
22764;SDS011;11549;50.852;3.816;2022-09-27T14:59:03;4.55;;;1.35;;
22764;SDS011;11549;50.852;3.816;2022-09-27T15:01:36;6.32;;;1.30;;
22764;SDS011;11549;50.852;3.816;2022-09-27T15:04:05;6.57;;;1.80;;
22764;SDS011;11549;50.852;3.816;2022-09-27T15:06:40;7.38;;;1.55;;
22764;SDS011;11549;50.852;3.816;2022-09-27T15:09:11;5.40;;;1.35;;
22764;SDS011;11549;50.852;3.816;2022-09-27T15:11:41;4.72;;;1.05;;
22764;SDS011;11549;50.852;3.816;2022-09-27T15:14:15;6.13;;;1.00;;
22764;SDS011;11549;50.852;3.816;2022-09-27T15:16:47;5.15;;;1.08;;
22764;SDS011;11549;50.852;3.816;2022-09-27T15:19:21;5.13;;;1.10;;
22764;SDS011;11549;50.852;3.816;2022-09-27T15:21:52;5.82;;;1.30;;
22764;SDS011;11549;50.852;3.816;2022-09-27T15:24:35;6.05;;;1.27;;
22764;SDS011;11549;50.852;3.816;2022-09-27T15:27:11;8.82;;;1.55;;
22764;SDS011;11549;50.852;3.816;2022-09-27T15:29:46;5.03;;;1.30;;
22764;SDS011;11549;50.852;3.816;2022-09-27T15:32:19;4.47;;;1.20;;
22764;SDS011;11549;50.852;3.816;2022-09-27T15:34:50;4.47;;;1.25;;
22764;SDS011;11549;50.852;3.816;2022-09-27T15:37:27;9.52;;;1.73;;
22764;SDS011;11549;50.852;3.816;2022-09-27T15:40:05;6.63;;;1.60;;
22764;SDS011;11549;50.852;3.816;2022-09-27T15:43:21;5.13;;;1.23;;
22764;SDS011;11549;50.852;3.816;2022-09-27T15:45:55;6.00;;;1.60;;
22764;SDS011;11549;50.852;3.816;2022-09-27T15:48:30;7.38;;;1.55;;
22764;SDS011;11549;50.852;3.816;2022-09-27T15:51:00;4.82;;;1.23;;
22764;SDS011;11549;50.852;3.816;2022-09-27T15:53:42;5.93;;;1.23;;